地図

経路データ

SID SEASON NUMBER BASIN SUBBASIN NAME ISO_TIME NATURE LAT LON WMO_WIND WMO_PRES WMO_AGENCY TRACK_TYPE DIST2LAND LANDFALL IFLAG USA_AGENCY USA_ATCF_ID USA_LAT USA_LON USA_RECORD USA_STATUS USA_WIND USA_PRES USA_SSHS USA_R34_NE USA_R34_SE USA_R34_SW USA_R34_NW USA_R50_NE USA_R50_SE USA_R50_SW USA_R50_NW USA_R64_NE USA_R64_SE USA_R64_SW USA_R64_NW USA_POCI USA_ROCI USA_RMW USA_EYE TOKYO_LAT TOKYO_LON TOKYO_GRADE TOKYO_WIND TOKYO_PRES TOKYO_R50_DIR TOKYO_R50_LONG TOKYO_R50_SHORT TOKYO_R30_DIR TOKYO_R30_LONG TOKYO_R30_SHORT TOKYO_LAND CMA_LAT CMA_LON CMA_CAT CMA_WIND CMA_PRES HKO_LAT HKO_LON HKO_CAT HKO_WIND HKO_PRES NEWDELHI_LAT NEWDELHI_LON NEWDELHI_GRADE NEWDELHI_WIND NEWDELHI_PRES NEWDELHI_CI NEWDELHI_DP NEWDELHI_POCI REUNION_LAT REUNION_LON REUNION_TYPE REUNION_WIND REUNION_PRES REUNION_TNUM REUNION_CI REUNION_RMW REUNION_R34_NE REUNION_R34_SE REUNION_R34_SW REUNION_R34_NW REUNION_R50_NE REUNION_R50_SE REUNION_R50_SW REUNION_R50_NW REUNION_R64_NE REUNION_R64_SE REUNION_R64_SW REUNION_R64_NW BOM_LAT BOM_LON BOM_TYPE BOM_WIND BOM_PRES BOM_TNUM BOM_CI BOM_RMW BOM_R34_NE BOM_R34_SE BOM_R34_SW BOM_R34_NW BOM_R50_NE BOM_R50_SE BOM_R50_SW BOM_R50_NW BOM_R64_NE BOM_R64_SE BOM_R64_SW BOM_R64_NW BOM_ROCI BOM_POCI BOM_EYE BOM_POS_METHOD BOM_PRES_METHOD NADI_LAT NADI_LON NADI_CAT NADI_WIND NADI_PRES WELLINGTON_LAT WELLINGTON_LON WELLINGTON_WIND WELLINGTON_PRES DS824_LAT DS824_LON DS824_STAGE DS824_WIND DS824_PRES TD9636_LAT TD9636_LON TD9636_STAGE TD9636_WIND TD9636_PRES TD9635_LAT TD9635_LON TD9635_WIND TD9635_PRES TD9635_ROCI NEUMANN_LAT NEUMANN_LON NEUMANN_CLASS NEUMANN_WIND NEUMANN_PRES MLC_LAT MLC_LON MLC_CLASS MLC_WIND MLC_PRES USA_GUST BOM_GUST BOM_GUST_PER REUNION_GUST REUNION_GUST_PER USA_SEAHGT USA_SEARAD_NE USA_SEARAD_SE USA_SEARAD_SW USA_SEARAD_NW STORM_SPEED STORM_DIR
1909011S13112 1909 4 SI WA NOT_NAMED 1909-01-11 06:00:00 NR -12.7000 111.600 main 481 481 _____O________ -1 -12.7000 111.600 99 9.90000 1 0
1909011S13112 1909 4 SI WA NOT_NAMED 1909-01-11 09:00:00 NR -12.7433 111.628 main 481 481 _____P________ -1 -12.7433 111.628 99 1 151
1909011S13112 1909 4 SI WA NOT_NAMED 1909-01-11 12:00:00 NR -12.7920 111.659 main 492 492 _____P________ -1 -12.7920 111.659 99 1 150
1909011S13112 1909 4 SI WA NOT_NAMED 1909-01-11 15:00:00 NR -12.8515 111.696 main 504 504 _____P________ -1 -12.8515 111.696 99 2 149
1909011S13112 1909 4 SI WA NOT_NAMED 1909-01-11 18:00:00 NR -12.9272 111.744 main 504 504 _____P________ -1 -12.9272 111.744 99 2 149
1909011S13112 1909 4 SI WA NOT_NAMED 1909-01-11 21:00:00 NR -13.0245 111.805 main 515 515 _____P________ -1 -13.0245 111.805 99 3 149
1909011S13112 1909 4 SI WA NOT_NAMED 1909-01-12 00:00:00 NR -13.1488 111.882 main 526 526 _____P________ -1 -13.1488 111.882 99 3 149
1909011S13112 1909 4 SI WA NOT_NAMED 1909-01-12 03:00:00 NR -13.3055 111.979 main 549 549 _____P________ -1 -13.3055 111.979 99 4 149
1909011S13112 1909 4 SI WA NOT_NAMED 1909-01-12 06:00:00 NR -13.5000 112.100 main 572 572 _____O________ -1 -13.5000 112.100 99 9.90000 5 149
1909011S13112 1909 4 SI WA NOT_NAMED 1909-01-12 09:00:00 NR -13.7350 112.246 main 596 594 _____P________ -1 -13.7350 112.246 99 6 149
1909011S13112 1909 4 SI WA NOT_NAMED 1909-01-12 12:00:00 NR -14.0026 112.412 main 623 623 _____P________ -1 -14.0026 112.412 99 7 149
1909011S13112 1909 4 SI WA NOT_NAMED 1909-01-12 15:00:00 NR -14.2922 112.593 main 651 651 _____P________ -1 -14.2922 112.593 99 7 149
1909011S13112 1909 4 SI WA NOT_NAMED 1909-01-12 18:00:00 NR -14.5932 112.783 main 678 678 _____P________ -1 -14.5932 112.783 99 7 149
1909011S13112 1909 4 SI WA NOT_NAMED 1909-01-12 21:00:00 NR -14.8950 112.974 main 704 704 _____P________ -1 -14.8950 112.974 99 7 148
1909011S13112 1909 4 SI WA NOT_NAMED 1909-01-13 00:00:00 NR -15.1871 113.162 main 708 683 _____P________ -1 -15.1871 113.162 99 7 148
1909011S13112 1909 4 SI WA NOT_NAMED 1909-01-13 03:00:00 NR -15.4589 113.340 main 674 644 _____P________ -1 -15.4589 113.340 99 6 148
1909011S13112 1909 4 SI WA NOT_NAMED 1909-01-13 06:00:00 NR -15.7000 113.500 main 644 619 _____O________ -1 -15.7000 113.500 99 9.90000 5 146
1909011S13112 1909 4 SI WA NOT_NAMED 1909-01-13 09:00:00 NR -15.8593 113.619 main 619 604 _____P________ -1 -15.8593 113.619 99 4 143
1909011S13112 1909 4 SI WA NOT_NAMED 1909-01-13 12:00:00 NR -15.9896 113.723 main 604 589 _____P________ -1 -15.9896 113.723 99 3 142
1909011S13112 1909 4 SI WA NOT_NAMED 1909-01-13 15:00:00 NR -16.0987 113.814 main 589 574 _____P________ -1 -16.0987 113.814 99 3 141
1909011S13112 1909 4 SI WA NOT_NAMED 1909-01-13 18:00:00 NR -16.1945 113.897 main 574 559 _____P________ -1 -16.1945 113.897 99 2 141
1909011S13112 1909 4 SI WA NOT_NAMED 1909-01-13 21:00:00 NR -16.2847 113.973 main 559 549 _____P________ -1 -16.2847 113.973 99 2 142
1909011S13112 1909 4 SI WA NOT_NAMED 1909-01-14 00:00:00 NR -16.3772 114.047 main 549 534 _____P________ -1 -16.3772 114.047 99 2 144
1909011S13112 1909 4 SI WA NOT_NAMED 1909-01-14 03:00:00 NR -16.4797 114.122 main 534 519 _____P________ -1 -16.4797 114.122 99 3 146
1909011S13112 1909 4 SI WA NOT_NAMED 1909-01-14 06:00:00 NR -16.6000 114.200 main 519 504 _____O________ -1 -16.6000 114.200 99 9.90000 3 149
1909011S13112 1909 4 SI WA NOT_NAMED 1909-01-14 09:00:00 NR -16.7441 114.284 main 504 479 _____P________ -1 -16.7441 114.284 99 4 151
1909011S13112 1909 4 SI WA NOT_NAMED 1909-01-14 12:00:00 NR -16.9106 114.375 main 479 454 _____P________ -1 -16.9106 114.375 99 4 153
1909011S13112 1909 4 SI WA NOT_NAMED 1909-01-14 15:00:00 NR -17.0963 114.471 main 454 430 _____P________ -1 -17.0963 114.471 99 4 154
1909011S13112 1909 4 SI WA NOT_NAMED 1909-01-14 18:00:00 NR -17.2979 114.571 main 430 405 _____P________ -1 -17.2979 114.571 99 5 155
1909011S13112 1909 4 SI WA NOT_NAMED 1909-01-14 21:00:00 NR -17.5124 114.675 main 405 380 _____P________ -1 -17.5124 114.675 99 5 155
1909011S13112 1909 4 SI WA NOT_NAMED 1909-01-15 00:00:00 NR -17.7363 114.781 main 380 346 _____P________ -1 -17.7363 114.781 99 5 156
1909011S13112 1909 4 SI WA NOT_NAMED 1909-01-15 03:00:00 NR -17.9666 114.890 main 346 322 _____P________ -1 -17.9666 114.890 99 5 156
1909011S13112 1909 4 SI WA NOT_NAMED 1909-01-15 06:00:00 NR -18.2000 115.000 main 322 _____O________ -1 -18.2000 115.000 99 9.90000 5 156

IBTrACS Databaseについて

本データベースは、米国NOAAが公開する1842年以降の世界の熱帯低気圧のベストトラックデータアーカイブInternational Best Track Archive for Climate Stewardship (IBTrACS)を、ウェブで閲覧しやすい形式に変換したものです。

最終更新日:2021-10-21